Time;durP1;ratioP1;P1;durP2;ratioP2;P2;SDS_P1;SDS_P2;PMS_P1;PMS_P2;Temp;Humidity;BMP_temperature;BMP_pressure;BME280_temperature;BME280_humidity;BME280_pressure;Samples;Min_cycle;Max_cycle;Signal;HPM_P1;HPM_P2
2022/09/19 00:00:44;;;;;;;4.10;1.00;;;;;;;;;;2293661;58;21125;-79
2022/09/19 00:03:11;;;;;;;0.75;0.75;;;;;;;;;;2293831;58;21073;-80
2022/09/19 00:05:39;;;;;;;1.23;0.90;;;;;;;;;;2293123;58;22350;-79
2022/09/19 00:08:06;;;;;;;1.12;0.70;;;;;;;;;;2529562;55;21184;-80
2022/09/19 00:10:37;;;;;;;2.70;0.80;;;;;;;;;;2293780;58;21080;-79
2022/09/19 00:13:06;;;;;;;1.90;0.75;;;;;;;;;;2293622;58;21141;-80
2022/09/19 00:15:34;;;;;;;1.77;0.80;;;;;;;;;;2528686;54;21053;-80
2022/09/19 00:18:01;;;;;;;3.05;0.80;;;;;;;;;;2293661;58;21059;-79
2022/09/19 00:20:28;;;;;;;2.10;0.70;;;;;;;;;;2293522;58;21120;-80
2022/09/19 00:25:56;;;;;;;1.23;0.88;;;;;;;;;;2292716;58;21057;-80
2022/09/19 00:28:27;;;;;;;1.50;0.70;;;;;;;;;;2293409;58;21113;-79
2022/09/19 00:30:54;;;;;;;2.10;0.90;;;;;;;;;;2528945;55;21061;-79
2022/09/19 00:33:21;;;;;;;2.47;0.90;;;;;;;;;;2293708;58;21128;-79
2022/09/19 00:35:50;;;;;;;2.15;0.80;;;;;;;;;;2293082;58;21061;-79
2022/09/19 00:38:17;;;;;;;3.83;0.90;;;;;;;;;;2529267;54;21129;-80
2022/09/19 00:40:44;;;;;;;1.00;0.90;;;;;;;;;;2293536;58;21160;-79
2022/09/19 00:43:13;;;;;;;1.05;0.90;;;;;;;;;;2293772;58;21140;-80
2022/09/19 00:45:40;;;;;;;4.43;1.00;;;;;;;;;;2292927;58;21125;-79
2022/09/19 00:48:08;;;;;;;3.72;0.85;;;;;;;;;;2293531;58;21084;-79
2022/09/19 00:50:35;;;;;;;1.87;0.95;;;;;;;;;;2293393;58;21056;-79
2022/09/19 00:53:04;;;;;;;1.62;0.82;;;;;;;;;;2293554;58;21585;-79
2022/09/19 00:55:31;;;;;;;2.58;0.90;;;;;;;;;;2528475;54;21164;-79
2022/09/19 00:58:08;;;;;;;0.80;0.70;;;;;;;;;;2293430;58;21069;-79
2022/09/19 01:00:35;;;;;;;1.52;0.98;;;;;;;;;;2529072;55;21132;-79
2022/09/19 01:03:04;;;;;;;3.85;0.90;;;;;;;;;;2293411;58;21042;-80
2022/09/19 01:05:41;;;;;;;1.35;0.88;;;;;;;;;;2293072;58;21228;-79
2022/09/19 01:08:17;;;;;;;1.20;0.80;;;;;;;;;;2529150;55;21112;-79
2022/09/19 01:10:50;;;;;;;1.65;0.88;;;;;;;;;;2293524;58;21664;-79
2022/09/19 01:13:22;;;;;;;1.20;1.10;;;;;;;;;;2293534;58;21144;-80
2022/09/19 01:15:53;;;;;;;2.15;1.12;;;;;;;;;;2293117;58;21124;-79
2022/09/19 01:18:22;;;;;;;1.20;0.90;;;;;;;;;;2528944;55;21053;-80
2022/09/19 01:24:08;;;;;;;1.40;0.90;;;;;;;;;;2293503;58;21041;-79
2022/09/19 01:26:44;;;;;;;1.83;1.23;;;;;;;;;;2292679;58;21061;-79
2022/09/19 01:29:15;;;;;;;1.23;1.00;;;;;;;;;;2293476;58;21168;-79
2022/09/19 01:31:44;;;;;;;1.52;1.00;;;;;;;;;;2293563;58;21069;-79
2022/09/19 01:34:13;;;;;;;1.60;1.10;;;;;;;;;;2529334;54;21144;-80
2022/09/19 01:36:43;;;;;;;1.40;1.00;;;;;;;;;;2298273;53;70264;-76
2022/09/19 01:39:12;;;;;;;2.15;1.17;;;;;;;;;;2303530;58;21067;-76
2022/09/19 01:41:39;;;;;;;2.20;1.20;;;;;;;;;;2540843;54;21625;-75
2022/09/19 01:44:16;;;;;;;1.85;1.20;;;;;;;;;;2319489;57;21120;-77
2022/09/19 01:46:50;;;;;;;2.72;1.00;;;;;;;;;;2329237;57;21605;-76
2022/09/19 01:49:21;;;;;;;1.58;1.10;;;;;;;;;;2573378;54;21484;-76
2022/09/19 01:51:50;;;;;;;1.20;1.10;;;;;;;;;;2329875;57;21069;-74
2022/09/19 01:54:23;;;;;;;1.30;1.10;;;;;;;;;;2329862;57;21073;-76
2022/09/19 01:56:56;;;;;;;1.37;1.20;;;;;;;;;;2572807;54;21195;-75
2022/09/19 01:59:31;;;;;;;2.00;1.20;;;;;;;;;;2330199;57;21572;-76
2022/09/19 02:02:01;;;;;;;1.70;1.20;;;;;;;;;;2330141;57;21045;-76
2022/09/19 02:04:31;;;;;;;2.28;1.50;;;;;;;;;;2329774;57;21141;-76
2022/09/19 02:07:03;;;;;;;2.50;1.30;;;;;;;;;;2329325;57;21646;-76
2022/09/19 02:09:32;;;;;;;1.83;1.20;;;;;;;;;;2330137;57;21108;-76
2022/09/19 02:12:01;;;;;;;2.30;1.10;;;;;;;;;;2573214;54;21122;-76
2022/09/19 02:14:30;;;;;;;2.33;1.48;;;;;;;;;;2329956;57;21930;-75
2022/09/19 02:17:03;;;;;;;2.35;1.42;;;;;;;;;;2329107;57;21603;-76
2022/09/19 02:19:31;;;;;;;;;;;;;;;;;;2333380;57;21061;-76
2022/09/19 02:22:01;;;;;;;1.27;1.10;;;;;;;;;;2573460;54;20066;-75
2022/09/19 02:24:30;;;;;;;1.87;1.17;;;;;;;;;;2329680;57;21168;-73
2022/09/19 02:27:07;;;;;;;3.12;1.35;;;;;;;;;;2329331;57;21056;-76
2022/09/19 02:29:35;;;;;;;2.53;1.42;;;;;;;;;;2573380;54;21049;-73
2022/09/19 02:32:03;;;;;;;2.25;1.12;;;;;;;;;;2330122;57;21069;-75
2022/09/19 02:34:30;;;;;;;1.50;1.10;;;;;;;;;;2329938;57;21041;-76
2022/09/19 02:37:01;;;;;;;2.45;1.17;;;;;;;;;;2329232;57;21623;-76
2022/09/19 02:39:31;;;;;;;2.83;1.20;;;;;;;;;;2329838;57;21116;-76
2022/09/19 02:42:03;;;;;;;1.73;1.35;;;;;;;;;;2329791;57;21073;-76
2022/09/19 02:44:33;;;;;;;1.58;1.10;;;;;;;;;;2330026;57;21072;-75
2022/09/19 02:47:03;;;;;;;1.60;1.37;;;;;;;;;;2329536;57;21618;-76
2022/09/19 02:49:38;;;;;;;2.12;1.20;;;;;;;;;;2573278;54;21037;-76
2022/09/19 02:52:08;;;;;;;4.30;1.33;;;;;;;;;;2573515;54;21041;-75
2022/09/19 02:54:37;;;;;;;1.37;1.00;;;;;;;;;;2573125;53;21104;-76
2022/09/19 02:57:13;;;;;;;1.87;1.00;;;;;;;;;;2329523;57;21339;-76
2022/09/19 02:59:41;;;;;;;2.42;1.00;;;;;;;;;;2329809;57;21125;-75
2022/09/19 03:02:10;;;;;;;1.05;1.00;;;;;;;;;;2329869;57;21134;-73
2022/09/19 03:04:40;;;;;;;5.40;1.30;;;;;;;;;;2329927;57;21546;-75
2022/09/19 03:07:12;;;;;;;2.78;1.15;;;;;;;;;;2329188;57;21621;-73
2022/09/19 03:09:41;;;;;;;3.92;1.85;;;;;;;;;;2573334;54;21173;-76
2022/09/19 03:12:18;;;;;;;1.40;1.30;;;;;;;;;;2573329;54;21041;-76
2022/09/19 03:14:45;;;;;;;1.80;1.37;;;;;;;;;;2329823;57;21037;-76
2022/09/19 03:17:16;;;;;;;2.53;1.45;;;;;;;;;;2329365;57;21049;-76
2022/09/19 03:19:46;;;;;;;3.10;1.48;;;;;;;;;;2330010;57;21125;-76
2022/09/19 03:22:13;;;;;;;1.60;1.30;;;;;;;;;;2330027;57;21104;-76
2022/09/19 03:24:41;;;;;;;3.33;1.58;;;;;;;;;;2329756;57;21057;-75
2022/09/19 03:27:08;;;;;;;1.30;1.20;;;;;;;;;;2572720;54;22337;-76
2022/09/19 03:29:36;;;;;;;3.72;1.58;;;;;;;;;;2329932;57;21117;-76
2022/09/19 03:32:03;;;;;;;1.80;1.42;;;;;;;;;;2573406;54;21615;-75
2022/09/19 03:34:32;;;;;;;5.47;2.12;;;;;;;;;;2329977;57;21532;-76
2022/09/19 03:37:00;;;;;;;5.35;1.77;;;;;;;;;;2572897;54;21113;-76
2022/09/19 03:39:27;;;;;;;1.80;1.50;;;;;;;;;;2329809;57;21058;-75
2022/09/19 03:41:55;;;;;;;3.92;1.30;;;;;;;;;;2329818;57;21053;-76
2022/09/19 03:44:22;;;;;;;2.58;1.25;;;;;;;;;;2329910;57;21120;-76
2022/09/19 03:46:49;;;;;;;2.55;1.35;;;;;;;;;;2329148;57;21598;-74
2022/09/19 03:49:18;;;;;;;2.12;1.23;;;;;;;;;;2330060;57;21049;-76
2022/09/19 03:51:46;;;;;;;2.55;1.37;;;;;;;;;;2329963;57;21104;-76
2022/09/19 03:54:13;;;;;;;3.03;1.17;;;;;;;;;;2330062;57;21128;-77
2022/09/19 03:56:40;;;;;;;4.05;1.33;;;;;;;;;;2329062;57;21064;-74
2022/09/19 03:59:07;;;;;;;2.15;1.15;;;;;;;;;;2329723;57;21184;-74
2022/09/19 04:01:34;;;;;;;2.15;1.17;;;;;;;;;;2329523;57;21658;-77
2022/09/19 04:04:02;;;;;;;1.48;1.02;;;;;;;;;;2329860;57;21049;-74
2022/09/19 04:06:29;;;;;;;1.45;0.93;;;;;;;;;;2572512;54;21065;-73
2022/09/19 04:08:56;;;;;;;1.37;1.27;;;;;;;;;;2329895;57;21631;-74
2022/09/19 04:11:23;;;;;;;1.45;0.90;;;;;;;;;;2329607;57;21174;-74
2022/09/19 04:13:51;;;;;;;4.22;1.60;;;;;;;;;;2329575;57;21108;-74
2022/09/19 04:16:18;;;;;;;2.97;1.20;;;;;;;;;;2328983;57;21065;-74
2022/09/19 04:18:47;;;;;;;2.75;1.50;;;;;;;;;;2329863;57;21627;-76
2022/09/19 04:21:16;;;;;;;2.15;1.25;;;;;;;;;;2329559;57;21116;-74
2022/09/19 04:23:43;;;;;;;4.72;1.45;;;;;;;;;;2329983;57;21037;-74
2022/09/19 04:26:11;;;;;;;2.42;1.10;;;;;;;;;;2328930;57;21057;-74
2022/09/19 04:28:38;;;;;;;2.72;1.62;;;;;;;;;;2329546;57;21677;-77
2022/09/19 04:31:08;;;;;;;4.05;1.62;;;;;;;;;;2329797;57;21033;-74
2022/09/19 04:33:35;;;;;;;2.67;1.40;;;;;;;;;;2329851;57;21060;-74
2022/09/19 04:36:03;;;;;;;3.83;1.73;;;;;;;;;;2329305;57;21191;-76
2022/09/19 04:38:30;;;;;;;3.05;2.25;;;;;;;;;;2298089;57;21052;-74
2022/09/19 04:40:57;;;;;;;4.00;2.30;;;;;;;;;;2528467;55;21069;-75
2022/09/19 04:43:26;;;;;;;3.17;1.90;;;;;;;;;;2293084;58;21046;-74
2022/09/19 04:45:54;;;;;;;2.78;1.92;;;;;;;;;;2292661;58;21137;-74
2022/09/19 04:48:22;;;;;;;2.78;1.62;;;;;;;;;;2293153;58;21065;-74
2022/09/19 04:50:50;;;;;;;3.10;1.50;;;;;;;;;;2292938;58;21121;-74
2022/09/19 04:53:18;;;;;;;2.83;1.48;;;;;;;;;;2293126;58;21137;-74
2022/09/19 04:55:48;;;;;;;7.80;1.70;;;;;;;;;;2292598;58;21069;-78
2022/09/19 04:58:15;;;;;;;1.25;0.98;;;;;;;;;;2292908;58;21160;-74
2022/09/19 05:00:45;;;;;;;1.25;1.10;;;;;;;;;;2293142;58;21062;-74
2022/09/19 05:03:14;;;;;;;7.68;1.92;;;;;;;;;;2293028;58;21132;-77
2022/09/19 05:05:44;;;;;;;1.30;1.02;;;;;;;;;;2292696;58;21081;-74
2022/09/19 05:08:11;;;;;;;3.25;1.30;;;;;;;;;;2293081;58;21068;-74
2022/09/19 05:10:38;;;;;;;2.28;1.30;;;;;;;;;;2293217;58;21582;-77
2022/09/19 05:13:05;;;;;;;2.62;1.33;;;;;;;;;;2292900;58;21100;-74
2022/09/19 05:15:32;;;;;;;2.87;1.10;;;;;;;;;;2528475;55;21116;-77
2022/09/19 05:17:59;;;;;;;4.70;1.33;;;;;;;;;;2293376;58;21132;-76
2022/09/19 05:20:26;;;;;;;2.28;1.10;;;;;;;;;;2293471;58;21061;-76
2022/09/19 05:22:58;;;;;;;2.53;1.20;;;;;;;;;;2293204;58;21069;-74
2022/09/19 05:25:25;;;;;;;3.80;1.40;;;;;;;;;;2292895;58;21410;-76
2022/09/19 05:27:54;;;;;;;3.20;1.35;;;;;;;;;;2292954;58;21117;-76
2022/09/19 05:30:24;;;;;;;7.45;2.12;;;;;;;;;;2293708;58;21125;-76
2022/09/19 05:32:51;;;;;;;6.30;1.58;;;;;;;;;;2293305;58;21054;-76
2022/09/19 05:35:18;;;;;;;3.17;1.40;;;;;;;;;;2293234;58;21057;-76
2022/09/19 05:37:46;;;;;;;6.07;2.00;;;;;;;;;;2528942;55;21117;-76
2022/09/19 05:40:13;;;;;;;2.78;1.73;;;;;;;;;;2293930;58;21077;-75
2022/09/19 05:42:40;;;;;;;5.20;1.70;;;;;;;;;;2293355;58;21532;-76
2022/09/19 05:45:12;;;;;;;2.05;1.48;;;;;;;;;;2293329;58;21065;-76
2022/09/19 05:47:39;;;;;;;5.53;1.75;;;;;;;;;;2292898;58;21117;-76
2022/09/19 05:50:08;;;;;;;4.05;1.42;;;;;;;;;;2529181;55;21113;-76
2022/09/19 05:55:21;;;;;;;4.72;1.30;;;;;;;;;;2292964;58;21511;-76
2022/09/19 05:57:51;;;;;;;2.33;1.20;;;;;;;;;;2293041;58;21057;-74
2022/09/19 06:00:18;;;;;;;2.75;1.58;;;;;;;;;;2293473;58;21148;-74
2022/09/19 06:02:45;;;;;;;4.82;1.70;;;;;;;;;;2293264;58;21056;-76
2022/09/19 06:05:13;;;;;;;1.95;1.20;;;;;;;;;;2528997;55;21061;-75
2022/09/19 06:07:40;;;;;;;3.40;1.30;;;;;;;;;;2293133;58;21085;-76
2022/09/19 06:10:08;;;;;;;8.50;1.70;;;;;;;;;;2529218;55;21048;-75
2022/09/19 06:12:35;;;;;;;2.67;1.10;;;;;;;;;;2528798;55;21073;-76
2022/09/19 06:15:02;;;;;;;2.72;1.40;;;;;;;;;;2293460;58;21053;-76
2022/09/19 06:17:29;;;;;;;7.00;1.40;;;;;;;;;;2292726;58;21671;-75
2022/09/19 06:19:56;;;;;;;5.60;1.95;;;;;;;;;;2293512;58;21108;-76
2022/09/19 06:22:23;;;;;;;4.78;2.25;;;;;;;;;;2529056;55;21722;-74
2022/09/19 06:24:50;;;;;;;7.18;2.75;;;;;;;;;;2293076;58;21073;-76
2022/09/19 06:27:17;;;;;;;10.55;2.60;;;;;;;;;;2292880;58;21418;-76
2022/09/19 06:29:44;;;;;;;15.02;3.12;;;;;;;;;;2528713;55;21073;-76
2022/09/19 06:32:12;;;;;;;12.00;2.90;;;;;;;;;;2293421;58;21049;-76
2022/09/19 06:34:39;;;;;;;7.35;2.60;;;;;;;;;;2293198;58;21127;-76
2022/09/19 06:37:06;;;;;;;5.97;2.35;;;;;;;;;;2292908;58;21069;-77
2022/09/19 06:39:33;;;;;;;9.80;2.30;;;;;;;;;;2293214;58;21069;-74
2022/09/19 06:42:00;;;;;;;11.00;2.12;;;;;;;;;;2293703;58;21068;-76
2022/09/19 06:44:27;;;;;;;13.62;2.67;;;;;;;;;;2293407;58;21109;-77
2022/09/19 06:46:54;;;;;;;8.27;1.87;;;;;;;;;;2292820;58;21069;-76
2022/09/19 06:49:21;;;;;;;8.48;2.28;;;;;;;;;;2293427;58;21053;-76
2022/09/19 06:51:48;;;;;;;9.52;2.50;;;;;;;;;;2293449;58;21053;-76
2022/09/19 06:54:15;;;;;;;15.73;2.72;;;;;;;;;;2293119;58;21144;-76
2022/09/19 06:56:43;;;;;;;11.68;2.17;;;;;;;;;;2293144;58;21136;-76
2022/09/19 06:59:10;;;;;;;7.85;2.35;;;;;;;;;;2293122;58;21151;-76
2022/09/19 07:01:38;;;;;;;12.52;2.65;;;;;;;;;;2293615;58;21041;-76
2022/09/19 07:04:05;;;;;;;8.45;2.17;;;;;;;;;;2293382;58;21140;-76
2022/09/19 07:06:34;;;;;;;11.73;2.37;;;;;;;;;;2292543;58;21124;-76
2022/09/19 07:09:02;;;;;;;9.55;2.00;;;;;;;;;;2293306;58;21069;-76
2022/09/19 07:11:29;;;;;;;17.15;2.40;;;;;;;;;;2528887;55;21049;-76
2022/09/19 07:13:56;;;;;;;8.57;2.12;;;;;;;;;;2293271;58;21181;-77
2022/09/19 07:16:23;;;;;;;12.13;2.50;;;;;;;;;;2292981;58;21049;-74
2022/09/19 07:18:50;;;;;;;19.95;2.58;;;;;;;;;;2293175;58;21053;-76
2022/09/19 07:21:17;;;;;;;13.10;1.92;;;;;;;;;;2528834;55;21113;-77
2022/09/19 07:23:47;;;;;;;13.30;2.40;;;;;;;;;;2528650;54;21567;-76
2022/09/19 07:26:14;;;;;;;15.23;2.70;;;;;;;;;;2528031;54;21053;-75
2022/09/19 07:28:41;;;;;;;12.70;2.50;;;;;;;;;;2293243;58;21172;-77
2022/09/19 07:31:08;;;;;;;13.30;2.45;;;;;;;;;;2528644;55;21129;-77
2022/09/19 07:33:35;;;;;;;12.95;2.75;;;;;;;;;;2293201;58;21623;-76
2022/09/19 07:36:02;;;;;;;17.02;2.87;;;;;;;;;;2523935;53;21421;-75
2022/09/19 07:38:29;;;;;;;17.10;3.37;;;;;;;;;;2294649;58;21065;-76
2022/09/19 07:40:57;;;;;;;13.52;2.53;;;;;;;;;;2294434;58;21037;-75
2022/09/19 07:43:24;;;;;;;9.15;2.20;;;;;;;;;;2294341;58;21121;-75
2022/09/19 07:45:52;;;;;;;10.40;2.35;;;;;;;;;;2292693;58;21081;-75
2022/09/19 07:48:19;;;;;;;8.98;2.42;;;;;;;;;;2293242;58;21154;-75
2022/09/19 07:50:47;;;;;;;16.83;2.67;;;;;;;;;;2293045;58;21141;-75
2022/09/19 07:53:16;;;;;;;14.90;2.90;;;;;;;;;;2293313;58;21112;-75
2022/09/19 07:55:44;;;;;;;13.50;3.37;;;;;;;;;;2292414;58;21571;-74
2022/09/19 07:58:12;;;;;;;14.30;2.37;;;;;;;;;;2293199;58;21042;-75
2022/09/19 08:00:40;;;;;;;12.10;2.92;;;;;;;;;;2292900;58;21061;-76
2022/09/19 08:03:09;;;;;;;17.08;3.10;;;;;;;;;;2293095;58;21555;-75
2022/09/19 08:05:37;;;;;;;11.93;2.08;;;;;;;;;;2292623;58;21113;-76
2022/09/19 08:08:05;;;;;;;14.65;2.53;;;;;;;;;;2293151;58;21591;-76
2022/09/19 08:10:32;;;;;;;14.20;2.53;;;;;;;;;;2292866;58;21606;-75
2022/09/19 08:13:00;;;;;;;13.98;3.42;;;;;;;;;;2293140;58;21145;-75
2022/09/19 08:15:27;;;;;;;13.98;2.08;;;;;;;;;;2292589;58;21073;-75
2022/09/19 08:17:57;;;;;;;16.77;2.67;;;;;;;;;;2293310;58;21057;-75
2022/09/19 08:20:25;;;;;;;11.25;2.30;;;;;;;;;;2293158;58;21117;-75
2022/09/19 08:22:56;;;;;;;14.52;2.62;;;;;;;;;;2293206;58;21061;-75
2022/09/19 08:25:23;;;;;;;15.40;2.35;;;;;;;;;;2292408;58;21129;-75
2022/09/19 08:27:51;;;;;;;7.00;2.00;;;;;;;;;;2293107;58;21069;-76
2022/09/19 08:30:18;;;;;;;15.93;2.25;;;;;;;;;;2528384;55;21101;-75
2022/09/19 08:32:46;;;;;;;16.30;2.62;;;;;;;;;;2293061;58;21053;-75
2022/09/19 08:35:15;;;;;;;12.43;1.70;;;;;;;;;;2293205;58;21638;-76
2022/09/19 08:37:42;;;;;;;9.75;2.15;;;;;;;;;;2292940;58;21133;-75
2022/09/19 08:40:16;;;;;;;6.47;1.30;;;;;;;;;;2293089;58;21564;-75
2022/09/19 08:42:44;;;;;;;7.68;1.83;;;;;;;;;;2293107;58;21379;-75
2022/09/19 08:45:16;;;;;;;8.07;1.48;;;;;;;;;;2293139;58;21137;-76
2022/09/19 08:47:44;;;;;;;7.18;1.98;;;;;;;;;;2293248;58;21083;-76
2022/09/19 08:50:12;;;;;;;8.98;1.85;;;;;;;;;;2293312;58;21041;-75
2022/09/19 08:52:41;;;;;;;7.90;1.67;;;;;;;;;;2293278;58;21141;-75
2022/09/19 08:55:13;;;;;;;9.18;1.55;;;;;;;;;;2293233;58;21073;-76
2022/09/19 08:57:45;;;;;;;7.40;1.65;;;;;;;;;;2292853;58;21050;-75
2022/09/19 09:00:16;;;;;;;8.38;2.05;;;;;;;;;;2293275;58;21587;-77
2022/09/19 09:02:45;;;;;;;7.28;1.50;;;;;;;;;;2293122;58;21141;-75
2022/09/19 09:05:16;;;;;;;6.95;1.40;;;;;;;;;;2292972;58;21544;-76
2022/09/19 09:07:53;;;;;;;7.60;1.62;;;;;;;;;;2528504;55;21053;-76
2022/09/19 09:10:31;;;;;;;6.03;1.45;;;;;;;;;;2293359;58;21528;-75
2022/09/19 09:13:03;;;;;;;4.97;1.17;;;;;;;;;;2293145;58;21113;-75
2022/09/19 09:15:37;;;;;;;8.00;1.45;;;;;;;;;;2292829;58;21061;-76
2022/09/19 09:18:12;;;;;;;5.60;1.20;;;;;;;;;;2293333;58;21605;-75
2022/09/19 09:20:46;;;;;;;6.18;1.20;;;;;;;;;;2293357;58;21061;-77
2022/09/19 09:23:15;;;;;;;;;;;;;;;;;;2296432;58;21101;-75
2022/09/19 09:25:45;;;;;;;3.35;0.80;;;;;;;;;;2292905;58;20068;-76
2022/09/19 09:28:15;;;;;;;4.87;1.20;;;;;;;;;;2293004;58;21061;-76
2022/09/19 09:30:47;;;;;;;6.78;1.30;;;;;;;;;;2293251;58;21061;-77
2022/09/19 09:33:19;;;;;;;5.90;1.20;;;;;;;;;;2293318;58;21140;-76
2022/09/19 09:35:48;;;;;;;3.42;1.30;;;;;;;;;;2293096;58;21065;-77
2022/09/19 09:38:20;;;;;;;5.28;1.42;;;;;;;;;;2293038;58;21140;-77
2022/09/19 09:43:41;;;;;;;4.30;1.42;;;;;;;;;;2293159;58;21598;-77
2022/09/19 09:46:12;;;;;;;7.70;1.30;;;;;;;;;;2293125;58;21065;-77
2022/09/19 09:48:40;;;;;;;5.18;1.00;;;;;;;;;;2293231;58;21121;-77
2022/09/19 09:51:17;;;;;;;7.43;1.40;;;;;;;;;;2293220;58;21073;-76
2022/09/19 09:53:52;;;;;;;4.82;1.37;;;;;;;;;;2293267;58;21065;-77
2022/09/19 09:56:22;;;;;;;2.10;0.90;;;;;;;;;;2528046;55;21800;-77
2022/09/19 09:58:55;;;;;;;4.87;1.05;;;;;;;;;;2293035;58;21141;-76
2022/09/19 10:04:13;;;;;;;3.58;0.90;;;;;;;;;;2293145;58;21017;-77
2022/09/19 10:06:44;;;;;;;2.15;0.80;;;;;;;;;;2292727;58;21057;-77
2022/09/19 10:09:13;;;;;;;3.33;1.00;;;;;;;;;;2293142;58;21060;-77
2022/09/19 10:11:42;;;;;;;5.70;1.33;;;;;;;;;;2293197;58;21552;-77
2022/09/19 10:14:14;;;;;;;5.45;1.00;;;;;;;;;;2528532;54;21620;-77
2022/09/19 10:16:46;;;;;;;5.90;1.30;;;;;;;;;;2292782;58;21053;-77
2022/09/19 10:19:20;;;;;;;4.65;1.15;;;;;;;;;;2293262;58;21519;-77
2022/09/19 10:21:48;;;;;;;4.15;1.23;;;;;;;;;;2293342;58;21073;-77
2022/09/19 10:24:34;;;;;;;8.95;1.25;;;;;;;;;;2293299;58;21069;-77
2022/09/19 10:27:01;;;;;;;7.10;1.92;;;;;;;;;;2292649;58;21124;-76
2022/09/19 10:29:29;;;;;;;4.12;0.70;;;;;;;;;;2293053;58;21056;-77
2022/09/19 10:31:57;;;;;;;4.10;1.35;;;;;;;;;;2293267;58;21131;-77
2022/09/19 10:34:27;;;;;;;3.03;1.00;;;;;;;;;;2293124;58;21133;-77
2022/09/19 10:36:54;;;;;;;3.12;1.05;;;;;;;;;;2292463;58;21137;-77
2022/09/19 10:39:23;;;;;;;3.55;1.20;;;;;;;;;;2293292;58;21049;-77
2022/09/19 10:41:50;;;;;;;2.22;0.82;;;;;;;;;;2293262;58;21128;-77
2022/09/19 10:44:18;;;;;;;5.50;0.95;;;;;;;;;;2293052;58;21065;-77
2022/09/19 10:46:47;;;;;;;5.97;1.15;;;;;;;;;;2292678;58;21119;-77
2022/09/19 10:49:18;;;;;;;4.10;0.68;;;;;;;;;;2293120;58;21046;-77
2022/09/19 10:51:46;;;;;;;3.05;1.05;;;;;;;;;;2293254;58;21143;-76
2022/09/19 10:54:22;;;;;;;7.18;1.30;;;;;;;;;;2293115;58;21069;-76
2022/09/19 10:56:49;;;;;;;5.40;0.93;;;;;;;;;;2292604;58;21041;-76
2022/09/19 10:59:23;;;;;;;5.10;0.95;;;;;;;;;;2528641;55;21104;-76
2022/09/19 11:02:05;;;;;;;4.95;0.77;;;;;;;;;;2293111;58;21128;-76
2022/09/19 11:04:32;;;;;;;5.35;0.90;;;;;;;;;;2293012;58;21053;-76
2022/09/19 11:06:59;;;;;;;3.37;1.00;;;;;;;;;;2292615;58;21568;-77
2022/09/19 11:09:27;;;;;;;0.85;0.65;;;;;;;;;;2293144;58;21053;-76
2022/09/19 11:12:02;;;;;;;4.90;1.27;;;;;;;;;;2528611;55;21045;-76
2022/09/19 11:14:32;;;;;;;4.05;1.15;;;;;;;;;;2292079;58;22848;-76
2022/09/19 11:17:19;;;;;;;6.20;1.52;;;;;;;;;;2291165;58;21121;-78
2022/09/19 11:19:52;;;;;;;2.35;0.98;;;;;;;;;;2290775;58;21634;-77
2022/09/19 11:22:25;;;;;;;2.53;0.77;;;;;;;;;;2292748;58;21172;-81
2022/09/19 11:24:59;;;;;;;3.20;0.70;;;;;;;;;;2292475;58;21053;-80
2022/09/19 11:27:25;;;;;;;;;;;;;;;;;;2295759;58;21633;-79
2022/09/19 11:30:00;;;;;;;5.37;0.77;;;;;;;;;;2292657;58;20085;-79
2022/09/19 11:32:35;;;;;;;5.55;0.93;;;;;;;;;;2292256;58;21147;-80
2022/09/19 11:35:07;;;;;;;5.18;0.77;;;;;;;;;;2291837;58;21128;-81
2022/09/19 11:37:41;;;;;;;6.12;0.73;;;;;;;;;;2289818;58;21403;-80
2022/09/19 11:40:17;;;;;;;3.78;0.85;;;;;;;;;;2291857;58;21069;-83
2022/09/19 11:42:48;;;;;;;3.12;0.93;;;;;;;;;;2293027;58;21539;-80
2022/09/19 11:45:16;;;;;;;2.50;1.12;;;;;;;;;;2527976;55;21105;-80
2022/09/19 11:47:56;;;;;;;2.15;0.70;;;;;;;;;;2292208;58;21065;-80
2022/09/19 11:50:32;;;;;;;6.12;0.60;;;;;;;;;;2292831;58;21049;-81
2022/09/19 11:53:18;;;;;;;2.20;0.68;;;;;;;;;;2293090;58;21053;-81
2022/09/19 11:55:49;;;;;;;2.28;0.70;;;;;;;;;;2292196;58;21140;-82
2022/09/19 11:58:21;;;;;;;2.50;0.50;;;;;;;;;;2292276;58;21125;-78
2022/09/19 12:00:54;;;;;;;2.47;0.50;;;;;;;;;;2291478;58;21112;-78
2022/09/19 12:03:28;;;;;;;0.98;0.50;;;;;;;;;;2291269;58;21062;-78
2022/09/19 12:06:03;;;;;;;2.60;0.50;;;;;;;;;;2289843;58;21145;-77
2022/09/19 12:08:39;;;;;;;2.28;0.85;;;;;;;;;;2291340;58;21065;-77
2022/09/19 12:11:09;;;;;;;2.22;0.90;;;;;;;;;;2290869;58;21129;-77
2022/09/19 12:13:42;;;;;;;1.20;0.70;;;;;;;;;;2291305;58;21124;-77
2022/09/19 12:16:13;;;;;;;4.15;0.62;;;;;;;;;;2283600;58;21655;-79
2022/09/19 12:18:42;;;;;;;3.12;0.85;;;;;;;;;;2285443;58;21073;-78
2022/09/19 12:21:09;;;;;;;1.83;0.55;;;;;;;;;;2286791;58;21065;-78
2022/09/19 12:26:32;;;;;;;3.05;0.47;;;;;;;;;;2289449;58;20989;-79
2022/09/19 12:29:04;;;;;;;1.35;0.30;;;;;;;;;;2525499;55;21141;-79
2022/09/19 12:31:34;;;;;;;1.05;0.40;;;;;;;;;;2291281;58;21088;-78
2022/09/19 12:34:11;;;;;;;0.98;0.40;;;;;;;;;;2291516;58;21160;-79
2022/09/19 12:36:43;;;;;;;1.75;0.40;;;;;;;;;;2290122;58;21200;-81
2022/09/19 12:39:13;;;;;;;2.47;0.50;;;;;;;;;;2290204;58;21149;-78
2022/09/19 12:44:19;;;;;;;1.10;0.53;;;;;;;;;;2334084;57;27880;-77
2022/09/19 12:46:54;;;;;;;1.62;0.60;;;;;;;;;;2355560;56;21063;-76
2022/09/19 12:49:26;;;;;;;2.58;0.70;;;;;;;;;;2373323;56;21114;-78
2022/09/19 12:51:56;;;;;;;1.85;0.80;;;;;;;;;;2374439;56;21106;-78
2022/09/19 12:54:27;;;;;;;3.22;0.70;;;;;;;;;;2374216;56;21146;-78
2022/09/19 12:56:58;;;;;;;3.30;0.70;;;;;;;;;;2372980;56;21558;-77
2022/09/19 12:59:25;;;;;;;3.10;0.80;;;;;;;;;;2374210;56;21114;-77
2022/09/19 13:01:56;;;;;;;3.15;0.90;;;;;;;;;;2374177;56;21043;-77
2022/09/19 13:04:29;;;;;;;8.27;0.73;;;;;;;;;;2373805;56;21622;-77
2022/09/19 13:06:58;;;;;;;1.70;0.50;;;;;;;;;;2627122;52;21129;-78
2022/09/19 13:09:28;;;;;;;2.62;1.05;;;;;;;;;;2374581;56;21035;-77
2022/09/19 13:11:59;;;;;;;3.55;0.90;;;;;;;;;;2372083;56;21027;-78
2022/09/19 13:14:30;;;;;;;3.87;1.45;;;;;;;;;;2373031;56;21125;-78
2022/09/19 13:25:33;;;;;;;2.53;0.62;;;;;;;;;;2373198;56;21274;-74
2022/09/19 13:28:19;;;;;;;2.47;0.90;;;;;;;;;;2624950;52;21174;-74
2022/09/19 13:30:48;;;;;;;2.25;0.70;;;;;;;;;;2353782;56;21082;-75
2022/09/19 13:33:28;;;;;;;2.35;0.50;;;;;;;;;;2374365;56;21039;-74
2022/09/19 13:38:34;;;;;;;3.33;0.80;;;;;;;;;;2533479;54;21129;-76
2022/09/19 13:41:03;;;;;;;3.03;0.93;;;;;;;;;;2300317;58;21069;-77
2022/09/19 13:43:37;;;;;;;4.00;0.80;;;;;;;;;;2301418;58;21062;-77
2022/09/19 13:46:06;;;;;;;2.80;0.70;;;;;;;;;;2541417;54;21061;-77
2022/09/19 13:48:36;;;;;;;1.35;0.68;;;;;;;;;;2571675;54;21060;-77
2022/09/19 13:51:06;;;;;;;7.03;1.50;;;;;;;;;;2327043;57;21127;-77
2022/09/19 13:53:38;;;;;;;4.78;1.37;;;;;;;;;;2567900;54;21043;-77
2022/09/19 13:56:19;;;;;;;3.15;1.00;;;;;;;;;;2327343;57;21186;-78
2022/09/19 13:58:48;;;;;;;5.00;1.35;;;;;;;;;;2571092;54;21068;-77
2022/09/19 14:01:21;;;;;;;1.75;0.77;;;;;;;;;;2570430;53;21071;-78
2022/09/19 14:03:48;;;;;;;;;;;;;;;;;;2331529;57;21052;-77
2022/09/19 14:08:48;;;;;;;2.50;0.73;;;;;;;;;;2602579;53;26736;-79
2022/09/19 14:11:20;;;;;;;1.45;0.52;;;;;;;;;;2346066;57;21057;-78
2022/09/19 14:13:48;;;;;;;3.20;0.70;;;;;;;;;;2592179;52;21065;-78
2022/09/19 14:16:41;;;;;;;1.23;0.47;;;;;;;;;;2594593;52;21034;-76
2022/09/19 14:19:28;;;;;;;6.30;0.80;;;;;;;;;;2621643;52;21103;-77
2022/09/19 14:21:57;;;;;;;8.10;1.15;;;;;;;;;;2627167;52;21054;-81
2022/09/19 14:24:35;;;;;;;0.55;0.35;;;;;;;;;;2376723;56;21042;-83
2022/09/19 14:27:05;;;;;;;8.38;1.00;;;;;;;;;;2629151;52;21154;-85
2022/09/19 14:29:37;;;;;;;13.62;1.77;;;;;;;;;;2629721;52;21106;-83
2022/09/19 14:32:10;;;;;;;5.30;1.08;;;;;;;;;;2628706;52;21071;-81
2022/09/19 14:34:57;;;;;;;6.93;1.10;;;;;;;;;;2626081;52;21035;-82
2022/09/19 14:37:34;;;;;;;4.12;0.50;;;;;;;;;;2311041;56;21113;-84
2022/09/19 14:40:14;;;;;;;15.23;1.20;;;;;;;;;;2627437;52;21063;-82
2022/09/19 14:43:10;;;;;;;3.55;1.02;;;;;;;;;;2630039;52;21570;-84
2022/09/19 14:46:09;;;;;;;4.75;1.02;;;;;;;;;;2575208;52;21638;-83
2022/09/19 14:48:40;;;;;;;2.90;0.68;;;;;;;;;;2308861;56;21119;-83
2022/09/19 14:51:18;;;;;;;3.45;0.60;;;;;;;;;;2628595;52;21527;-83
2022/09/19 14:53:47;;;;;;;1.73;0.50;;;;;;;;;;2375642;56;21591;-80
2022/09/19 14:56:17;;;;;;;1.65;0.20;;;;;;;;;;2629210;52;21043;-80
2022/09/19 14:58:50;;;;;;;1.30;0.45;;;;;;;;;;2375776;56;21109;-82
2022/09/19 15:01:21;;;;;;;3.90;0.47;;;;;;;;;;2629878;52;21054;-85
2022/09/19 15:03:56;;;;;;;8.73;1.00;;;;;;;;;;2629198;52;21130;-80
2022/09/19 15:06:29;;;;;;;7.20;1.60;;;;;;;;;;2375574;56;21681;-83
2022/09/19 15:08:56;;;;;;;5.95;1.92;;;;;;;;;;2375676;56;21153;-82
2022/09/19 15:11:25;;;;;;;9.02;1.50;;;;;;;;;;2375415;56;21563;-84
2022/09/19 15:13:54;;;;;;;7.93;1.33;;;;;;;;;;2629755;52;21063;-84
2022/09/19 15:16:22;;;;;;;4.45;0.85;;;;;;;;;;2630088;52;21082;-84
2022/09/19 15:18:51;;;;;;;4.15;0.80;;;;;;;;;;2629577;52;21094;-82
2022/09/19 15:21:20;;;;;;;3.72;1.20;;;;;;;;;;2628827;52;21066;-84
2022/09/19 15:23:48;;;;;;;2.72;1.20;;;;;;;;;;2628429;52;21050;-84
2022/09/19 15:26:18;;;;;;;3.70;1.02;;;;;;;;;;2374802;56;21119;-84
2022/09/19 15:28:55;;;;;;;4.70;1.33;;;;;;;;;;2628783;52;21134;-84
2022/09/19 15:31:26;;;;;;;3.50;1.20;;;;;;;;;;2375622;56;21047;-84
2022/09/19 15:33:56;;;;;;;7.97;2.03;;;;;;;;;;2627473;52;21055;-83